createdAt,value
2017-09-06T00:00:59.581Z,0
2017-09-06T00:02:09.668Z,0
2017-09-06T00:03:19.761Z,0
2017-09-06T00:04:29.849Z,0
2017-09-06T00:05:39.934Z,0
2017-09-06T00:06:50.351Z,0
2017-09-06T00:08:00.109Z,0
2017-09-06T00:09:10.196Z,0
2017-09-06T00:10:20.618Z,0
2017-09-06T00:11:31.034Z,0
2017-09-06T00:12:41.019Z,0
2017-09-06T00:13:51.289Z,0
2017-09-06T00:15:01.232Z,0
2017-09-06T00:16:11.179Z,0
2017-09-06T00:17:21.448Z,0
2017-09-06T00:18:31.716Z,0
2017-09-06T00:19:41.983Z,0
2017-09-06T00:20:51.934Z,0
2017-09-06T00:22:01.879Z,0
2017-09-06T00:23:12.145Z,0
2017-09-06T00:24:22.413Z,0
2017-09-06T00:25:32.681Z,0
2017-09-06T00:26:42.629Z,0
2017-09-06T00:27:52.899Z,0
2017-09-06T00:29:03.168Z,0
2017-09-06T00:30:13.451Z,0
2017-09-06T00:31:23.723Z,0
2017-09-06T00:32:33.993Z,0
2017-09-06T00:33:44.259Z,0
2017-09-06T00:34:54.212Z,0
2017-09-06T00:36:04.482Z,0
2017-09-06T00:37:14.755Z,0
2017-09-06T00:38:25.023Z,0
2017-09-06T00:39:34.966Z,0
2017-09-06T00:40:44.926Z,0
2017-09-06T00:41:54.872Z,0
2017-09-06T00:43:05.145Z,0
2017-09-06T00:44:15.416Z,0
2017-09-06T00:45:25.362Z,0
2017-09-06T00:46:35.627Z,0
2017-09-06T00:47:45.932Z,0
2017-09-06T00:48:55.877Z,0
2017-09-06T00:50:06.147Z,0
2017-09-06T00:51:16.103Z,0
2017-09-06T00:52:26.046Z,0
2017-09-06T00:53:36.312Z,0
2017-09-06T00:54:45.940Z,0
2017-09-06T00:55:55.893Z,0
2017-09-06T00:57:06.169Z,0
2017-09-06T00:58:16.437Z,0
2017-09-06T00:59:26.703Z,0
2017-09-06T01:00:36.972Z,0
2017-09-06T01:01:46.623Z,0
2017-09-06T01:02:56.889Z,0
2017-09-06T01:04:07.157Z,0
2017-09-06T01:05:17.455Z,0
2017-09-06T01:06:27.404Z,0
2017-09-06T01:07:37.350Z,0
2017-09-06T01:08:47.296Z,0
2017-09-06T01:09:57.564Z,0
2017-09-06T01:11:07.197Z,0
2017-09-06T01:12:17.145Z,0
2017-09-06T01:13:27.096Z,0
2017-09-06T01:14:37.371Z,0
2017-09-06T01:15:47.637Z,0
2017-09-06T01:16:57.912Z,0
2017-09-06T01:18:08.212Z,0
2017-09-06T01:19:18.484Z,0
2017-09-06T01:20:28.757Z,0
2017-09-06T01:21:38.706Z,0
2017-09-06T01:22:48.975Z,0
2017-09-06T01:23:58.933Z,0
2017-09-06T01:25:09.202Z,0
2017-09-06T01:26:19.477Z,0
2017-09-06T01:27:29.855Z,0
2017-09-06T01:28:39.806Z,0
2017-09-06T01:29:49.752Z,0
2017-09-06T01:31:00.023Z,0
2017-09-06T01:32:09.967Z,0
2017-09-06T01:33:22.164Z,0
2017-09-06T01:34:32.433Z,0
2017-09-06T01:35:42.378Z,0
2017-09-06T01:36:52.651Z,0
2017-09-06T01:38:02.920Z,0
2017-09-06T01:39:13.341Z,0
2017-09-06T01:40:23.288Z,0
2017-09-06T01:41:33.561Z,0
2017-09-06T01:42:43.505Z,0
2017-09-06T01:43:53.776Z,0
2017-09-06T01:45:04.394Z,0
2017-09-06T01:46:14.341Z,0
2017-09-06T01:47:24.609Z,0
2017-09-06T01:48:34.554Z,0
2017-09-06T01:49:44.827Z,0
2017-09-06T01:50:58.556Z,0
2017-09-06T01:52:08.823Z,0
2017-09-06T01:53:19.094Z,0
2017-09-06T01:54:29.038Z,0
2017-09-06T01:55:39.306Z,0
2017-09-06T01:56:49.574Z,0
2017-09-06T01:57:59.849Z,0
2017-09-06T01:59:10.112Z,0
2017-09-06T02:00:19.736Z,0
2017-09-06T02:01:30.006Z,0
2017-09-06T02:02:40.270Z,0
2017-09-06T02:03:50.538Z,0
2017-09-06T02:05:00.483Z,0
2017-09-06T02:06:10.107Z,0
2017-09-06T02:07:19.737Z,0
2017-09-06T02:08:30.003Z,0
2017-09-06T02:09:40.269Z,0
2017-09-06T02:10:50.540Z,0
2017-09-06T02:12:00.808Z,0
2017-09-06T02:13:11.075Z,0
2017-09-06T02:14:21.345Z,0
2017-09-06T02:15:31.290Z,0
2017-09-06T02:16:41.564Z,0
2017-09-06T02:17:51.850Z,0
2017-09-06T02:19:02.125Z,0
2017-09-06T02:20:12.073Z,0
2017-09-06T02:21:22.341Z,0
2017-09-06T02:22:32.289Z,0
2017-09-06T02:23:42.553Z,0
2017-09-06T02:24:52.826Z,0
2017-09-06T02:26:02.775Z,0
2017-09-06T02:27:12.720Z,0
2017-09-06T02:28:22.986Z,0
2017-09-06T02:29:33.258Z,0
2017-09-06T02:30:43.207Z,0
2017-09-06T02:31:53.153Z,0
2017-09-06T02:33:03.437Z,0
2017-09-06T02:34:13.386Z,0
2017-09-06T02:35:23.653Z,0
2017-09-06T02:36:33.612Z,0
2017-09-06T02:37:43.880Z,0
2017-09-06T02:38:53.825Z,0
2017-09-06T02:40:04.095Z,0
2017-09-06T02:41:14.374Z,0
2017-09-06T02:42:24.650Z,0
2017-09-06T02:43:34.927Z,0
2017-09-06T02:44:45.200Z,0
2017-09-06T02:45:54.824Z,0
2017-09-06T02:47:05.101Z,0
2017-09-06T02:48:15.409Z,0
2017-09-06T02:49:25.685Z,0
2017-09-06T02:50:35.964Z,0
2017-09-06T02:51:45.914Z,0
2017-09-06T02:52:56.187Z,0
2017-09-06T02:54:06.478Z,0
2017-09-06T02:55:16.748Z,0
2017-09-06T02:56:26.407Z,0
2017-09-06T02:57:36.678Z,0
2017-09-06T02:58:46.943Z,0
2017-09-06T02:59:57.211Z,0
2017-09-06T03:01:07.475Z,0
2017-09-06T03:02:17.743Z,0
2017-09-06T03:03:28.046Z,0
2017-09-06T03:04:37.990Z,0
2017-09-06T03:05:48.256Z,0
2017-09-06T03:06:58.203Z,0
2017-09-06T03:08:08.150Z,0
2017-09-06T03:09:18.421Z,0
2017-09-06T03:10:28.697Z,0
2017-09-06T03:11:38.320Z,0
2017-09-06T03:12:48.590Z,0
2017-09-06T03:13:58.865Z,0
2017-09-06T03:15:09.137Z,0
2017-09-06T03:16:19.417Z,0
2017-09-06T03:17:29.691Z,0
2017-09-06T03:18:39.638Z,0
2017-09-06T03:19:49.903Z,0
2017-09-06T03:21:00.172Z,0
2017-09-06T03:22:10.437Z,0
2017-09-06T03:23:20.705Z,0
2017-09-06T03:24:30.975Z,0
2017-09-06T03:25:41.256Z,0
2017-09-06T03:26:51.201Z,0
2017-09-06T03:28:00.825Z,0
2017-09-06T03:29:11.087Z,0
2017-09-06T03:30:21.361Z,0
2017-09-06T03:31:31.636Z,0
2017-09-06T03:32:41.909Z,0
2017-09-06T03:33:51.853Z,0
2017-09-06T03:35:02.121Z,0
2017-09-06T03:36:12.073Z,0
2017-09-06T03:37:22.341Z,0
2017-09-06T03:38:31.967Z,0
2017-09-06T03:39:42.273Z,0
2017-09-06T03:40:52.538Z,0
2017-09-06T03:42:02.818Z,0
2017-09-06T03:43:12.762Z,0
2017-09-06T03:44:23.030Z,0
2017-09-06T03:45:33.297Z,0
2017-09-06T03:46:43.242Z,0
2017-09-06T03:47:53.511Z,0
2017-09-06T03:49:03.779Z,0
2017-09-06T03:50:13.402Z,0
2017-09-06T03:51:23.669Z,0
2017-09-06T03:52:33.939Z,0
2017-09-06T03:53:44.206Z,0
2017-09-06T03:54:54.163Z,4
2017-09-06T03:56:04.106Z,4
2017-09-06T03:57:14.050Z,4
2017-09-06T03:58:24.317Z,0
2017-09-06T03:59:34.264Z,4
2017-09-06T04:00:44.215Z,4
2017-09-06T04:01:54.482Z,4
2017-09-06T04:03:04.752Z,8
2017-09-06T04:04:15.018Z,8
2017-09-06T04:05:24.650Z,4
2017-09-06T04:06:34.914Z,8
2017-09-06T04:07:44.215Z,8
2017-09-06T04:08:54.483Z,12
2017-09-06T04:10:04.750Z,16
2017-09-06T04:11:15.021Z,16
2017-09-06T04:12:25.323Z,16
2017-09-06T04:13:34.947Z,20
2017-09-06T04:14:45.213Z,20
2017-09-06T04:15:55.479Z,20
2017-09-06T04:17:05.425Z,28
2017-09-06T04:18:15.695Z,36
2017-09-06T04:19:24.998Z,40
2017-09-06T04:20:34.943Z,52
2017-09-06T04:21:45.205Z,56
2017-09-06T04:22:55.502Z,64
2017-09-06T04:24:05.770Z,60
2017-09-06T04:25:15.389Z,56
2017-09-06T04:26:25.334Z,56
2017-09-06T04:27:35.283Z,60
2017-09-06T04:28:45.549Z,64
2017-09-06T04:29:55.824Z,64
2017-09-06T04:31:06.089Z,80
2017-09-06T04:32:16.033Z,84
2017-09-06T04:33:25.976Z,84
2017-09-06T04:34:36.245Z,72
2017-09-06T04:35:46.507Z,60
2017-09-06T04:36:56.778Z,64
2017-09-06T04:38:07.042Z,68
2017-09-06T04:39:16.990Z,84
2017-09-06T04:40:26.616Z,108
2017-09-06T04:41:36.884Z,96
2017-09-06T04:42:46.503Z,88
2017-09-06T04:43:56.454Z,92
2017-09-06T04:45:06.403Z,100
2017-09-06T04:46:16.350Z,108
2017-09-06T04:47:25.974Z,108
2017-09-06T04:48:35.917Z,112
2017-09-06T04:49:46.186Z,116
2017-09-06T04:50:56.456Z,136
2017-09-06T04:52:06.731Z,140
2017-09-06T04:53:17.008Z,136
2017-09-06T04:54:27.272Z,148
2017-09-06T04:55:37.219Z,160
2017-09-06T04:56:47.487Z,200
2017-09-06T04:57:57.429Z,212
2017-09-06T04:59:07.697Z,220
2017-09-06T05:00:17.968Z,252
2017-09-06T05:01:28.232Z,264
2017-09-06T05:02:37.858Z,316
2017-09-06T05:03:47.497Z,376
2017-09-06T05:04:57.768Z,396
2017-09-06T05:06:07.713Z,368
2017-09-06T05:07:17.988Z,384
2017-09-06T05:08:27.934Z,420
2017-09-06T05:09:38.201Z,424
2017-09-06T05:10:48.481Z,388
2017-09-06T05:11:58.425Z,332
2017-09-06T05:13:08.729Z,300
2017-09-06T05:14:18.993Z,312
2017-09-06T05:15:29.262Z,332
2017-09-06T05:16:39.244Z,352
2017-09-06T05:17:49.195Z,332
2017-09-06T05:18:59.150Z,372
2017-09-06T05:20:09.109Z,280
2017-09-06T05:21:19.377Z,276
2017-09-06T05:22:29.647Z,280
2017-09-06T05:23:39.913Z,276
2017-09-06T05:24:49.542Z,396
2017-09-06T05:25:59.811Z,424
2017-09-06T05:27:10.087Z,392
2017-09-06T05:28:20.350Z,332
2017-09-06T05:29:30.621Z,320
2017-09-06T05:30:40.884Z,352
2017-09-06T05:31:51.148Z,428
2017-09-06T05:33:01.095Z,440
2017-09-06T05:34:11.047Z,420
2017-09-06T05:35:21.314Z,488
2017-09-06T05:36:31.588Z,444
2017-09-06T05:37:41.211Z,388
2017-09-06T05:38:51.830Z,448
2017-09-06T05:40:02.097Z,444
2017-09-06T05:41:12.364Z,444
2017-09-06T05:42:22.646Z,432
2017-09-06T05:43:32.913Z,452
2017-09-06T05:44:43.182Z,460
2017-09-06T05:45:52.807Z,456
2017-09-06T05:47:03.071Z,456
2017-09-06T05:48:13.338Z,536
2017-09-06T05:49:23.608Z,548
2017-09-06T05:50:33.877Z,512
2017-09-06T05:51:43.822Z,504
2017-09-06T05:52:54.092Z,632
2017-09-06T05:54:04.362Z,672
2017-09-06T05:55:14.635Z,724
2017-09-06T05:56:24.912Z,808
2017-09-06T05:57:34.862Z,840
2017-09-06T05:58:45.145Z,864
2017-09-06T05:59:55.419Z,884
2017-09-06T06:01:05.705Z,996
2017-09-06T06:02:15.662Z,1104
2017-09-06T06:03:25.943Z,1104
2017-09-06T06:04:35.891Z,1096
2017-09-06T06:05:45.834Z,1040
2017-09-06T06:06:56.100Z,1044
2017-09-06T06:08:06.364Z,1068
2017-09-06T06:09:16.635Z,984
2017-09-06T06:10:26.899Z,920
2017-09-06T06:11:37.166Z,980
2017-09-06T06:12:47.436Z,1076
2017-09-06T06:13:57.715Z,1244
2017-09-06T06:15:07.664Z,1572
2017-09-06T06:16:17.620Z,1692
2017-09-06T06:17:27.567Z,1828
2017-09-06T06:18:38.489Z,1712
2017-09-06T06:19:48.756Z,1468
2017-09-06T06:20:59.022Z,1496
2017-09-06T06:22:09.013Z,1376
2017-09-06T06:23:19.284Z,1372
2017-09-06T06:24:29.235Z,1280
2017-09-06T06:25:39.500Z,1472
2017-09-06T06:26:49.768Z,1392
2017-09-06T06:27:59.715Z,1428
2017-09-06T06:29:09.664Z,1320
2017-09-06T06:30:19.609Z,1172
2017-09-06T06:31:29.880Z,1128
2017-09-06T06:32:40.156Z,1312
2017-09-06T06:33:49.791Z,1320
2017-09-06T06:35:00.062Z,1368
2017-09-06T06:36:09.688Z,1596
2017-09-06T06:37:19.954Z,1588
2017-09-06T06:38:30.223Z,1500
2017-09-06T06:39:40.499Z,1484
2017-09-06T06:40:50.449Z,1320
2017-09-06T06:42:00.085Z,1220
2017-09-06T06:43:09.708Z,1140
2017-09-06T06:44:19.331Z,1240
2017-09-06T06:45:29.279Z,1352
2017-09-06T06:46:39.548Z,1268
2017-09-06T06:47:49.820Z,1272
2017-09-06T06:49:00.094Z,1404
2017-09-06T06:50:10.041Z,1428
2017-09-06T06:51:19.665Z,1448
2017-09-06T06:52:29.934Z,1440
2017-09-06T06:53:39.887Z,1408
2017-09-06T06:54:50.153Z,1580
2017-09-06T06:56:00.423Z,1392
2017-09-06T06:57:10.388Z,1524
2017-09-06T06:58:20.361Z,1488
2017-09-06T06:59:30.308Z,1504
2017-09-06T07:00:40.583Z,1588
2017-09-06T07:01:50.849Z,1640
2017-09-06T07:03:00.150Z,1972
2017-09-06T07:04:10.420Z,2152
2017-09-06T07:05:20.698Z,2132
2017-09-06T07:06:30.644Z,1856
2017-09-06T07:07:40.907Z,1732
2017-09-06T07:08:50.210Z,1548
2017-09-06T07:10:00.478Z,1784
2017-09-06T07:11:10.742Z,1904
2017-09-06T07:12:21.016Z,2068
2017-09-06T07:13:31.313Z,1632
2017-09-06T07:14:41.578Z,1764
2017-09-06T07:15:51.528Z,1424
2017-09-06T07:17:01.797Z,2196
2017-09-06T07:18:11.789Z,1872
2017-09-06T07:19:22.066Z,2324
2017-09-06T07:20:32.342Z,1876
2017-09-06T07:21:41.961Z,2056
2017-09-06T07:22:51.589Z,1380
2017-09-06T07:24:01.859Z,1400
2017-09-06T07:25:11.802Z,1664
2017-09-06T07:26:22.071Z,1468
2017-09-06T07:27:32.342Z,1288
2017-09-06T07:28:42.612Z,1772
2017-09-06T07:29:52.556Z,1640
2017-09-06T07:31:02.836Z,1924
2017-09-06T07:32:12.459Z,1420
2017-09-06T07:33:22.727Z,1564
2017-09-06T07:34:32.673Z,1512
2017-09-06T07:35:42.953Z,1584
2017-09-06T07:36:52.584Z,1604
2017-09-06T07:38:02.534Z,1704
2017-09-06T07:39:12.158Z,1544
2017-09-06T07:40:22.106Z,1524
2017-09-06T07:41:32.376Z,1456
2017-09-06T07:42:42.656Z,1352
2017-09-06T07:43:52.924Z,1452
2017-09-06T07:45:03.195Z,1184
2017-09-06T07:46:12.822Z,1572
2017-09-06T07:47:23.090Z,1544
2017-09-06T07:48:32.720Z,1908
2017-09-06T07:49:43.025Z,1720
2017-09-06T07:50:52.969Z,1916
2017-09-06T07:52:03.237Z,2204
2017-09-06T07:53:13.183Z,1996
2017-09-06T07:54:23.136Z,2164
2017-09-06T07:55:33.403Z,1388
2017-09-06T07:56:43.363Z,1716
2017-09-06T07:57:53.635Z,1412
2017-09-06T07:59:03.905Z,1368
2017-09-06T08:00:13.850Z,1544
2017-09-06T08:01:24.123Z,1728
2017-09-06T08:02:33.749Z,2052
2017-09-06T08:03:43.695Z,1664
2017-09-06T08:04:53.965Z,1604
2017-09-06T08:06:03.914Z,1720
2017-09-06T08:07:14.186Z,1340
2017-09-06T08:08:24.143Z,1336
2017-09-06T08:09:34.415Z,1108
2017-09-06T08:10:44.690Z,1332
2017-09-06T08:11:54.960Z,1164
2017-09-06T08:13:05.231Z,1224
2017-09-06T08:14:15.177Z,1620
2017-09-06T08:15:24.800Z,1576
2017-09-06T08:16:35.069Z,1804
2017-09-06T08:17:45.017Z,1572
2017-09-06T08:18:55.287Z,1656
2017-09-06T08:20:05.237Z,2232
2017-09-06T08:21:15.503Z,3412
2017-09-06T08:22:25.128Z,2900
2017-09-06T08:23:35.406Z,3948
2017-09-06T08:24:45.351Z,3384
2017-09-06T08:25:55.297Z,2116
2017-09-06T08:27:05.240Z,1360
2017-09-06T08:28:15.189Z,1484
2017-09-06T08:29:25.136Z,1784
2017-09-06T08:30:35.409Z,1804
2017-09-06T08:31:45.674Z,1428
2017-09-06T08:32:55.948Z,1608
2017-09-06T08:34:05.897Z,1436
2017-09-06T08:35:15.847Z,1616
2017-09-06T08:36:26.114Z,1232
2017-09-06T08:37:36.384Z,1368
2017-09-06T08:38:46.332Z,1404
2017-09-06T08:39:56.599Z,1240
2017-09-06T08:41:06.226Z,1560
2017-09-06T08:42:15.856Z,1736
2017-09-06T08:43:25.801Z,1964
2017-09-06T08:44:35.426Z,1712
2017-09-06T08:45:45.697Z,1320
2017-09-06T08:46:55.643Z,1252
2017-09-06T08:48:05.912Z,1412
2017-09-06T08:49:15.860Z,1324
2017-09-06T08:50:26.128Z,1488
2017-09-06T08:51:36.084Z,1612
2017-09-06T08:52:46.356Z,1864
2017-09-06T08:53:56.627Z,1508
2017-09-06T08:55:06.892Z,1492
2017-09-06T08:56:17.192Z,1212
2017-09-06T08:57:27.457Z,1392
2017-09-06T08:58:37.731Z,1300
2017-09-06T08:59:47.690Z,1624
2017-09-06T09:00:57.644Z,1096
2017-09-06T09:02:07.598Z,1108
2017-09-06T09:03:17.553Z,1532
2017-09-06T09:04:27.827Z,1800
2017-09-06T09:05:37.774Z,1876
2017-09-06T09:06:47.757Z,1440
2017-09-06T09:07:57.703Z,1588
2017-09-06T09:09:07.646Z,1572
2017-09-06T09:10:17.917Z,1588
2017-09-06T09:11:28.186Z,1660
2017-09-06T09:12:38.138Z,1228
2017-09-06T09:13:47.764Z,1628
2017-09-06T09:14:57.711Z,1836
2017-09-06T09:16:07.979Z,1488
2017-09-06T09:17:17.931Z,1632
2017-09-06T09:18:28.213Z,1848
2017-09-06T09:19:38.173Z,1764
2017-09-06T09:20:48.124Z,2156
2017-09-06T09:21:58.396Z,1920
2017-09-06T09:23:08.027Z,2336
2017-09-06T09:24:17.974Z,2012
2017-09-06T09:25:27.924Z,1808
2017-09-06T09:26:38.192Z,1536
2017-09-06T09:27:47.826Z,1444
2017-09-06T09:28:58.096Z,2004
2017-09-06T09:30:07.724Z,1276
2017-09-06T09:31:17.350Z,1516
2017-09-06T09:32:27.297Z,1376
2017-09-06T09:33:37.561Z,1532
2017-09-06T09:34:47.193Z,1480
2017-09-06T09:35:57.142Z,1492
2017-09-06T09:37:07.408Z,1456
2017-09-06T09:38:17.682Z,2444
2017-09-06T09:39:27.309Z,1824
2017-09-06T09:40:37.580Z,2088
2017-09-06T09:41:47.851Z,2156
2017-09-06T09:42:57.804Z,1472
2017-09-06T09:44:08.078Z,1416
2017-09-06T09:45:18.359Z,2112
2017-09-06T09:46:28.627Z,1568
2017-09-06T09:47:38.896Z,1620
2017-09-06T09:48:48.844Z,2020
2017-09-06T09:49:59.118Z,2012
2017-09-06T09:51:08.745Z,2436
2017-09-06T09:52:18.691Z,2620
2017-09-06T09:53:28.640Z,2268
2017-09-06T09:54:38.907Z,2504
2017-09-06T09:55:49.182Z,1968
2017-09-06T09:56:59.128Z,2024
2017-09-06T09:58:09.406Z,2048
2017-09-06T09:59:18.712Z,1832
2017-09-06T10:00:28.664Z,2008
2017-09-06T10:01:38.616Z,1912
2017-09-06T10:02:48.562Z,2004
2017-09-06T10:03:58.831Z,2276
2017-09-06T10:05:08.783Z,2452
2017-09-06T10:06:19.052Z,1896
2017-09-06T10:07:29.001Z,2684
2017-09-06T10:08:39.343Z,2584
2017-09-06T10:09:49.295Z,3932
2017-09-06T10:10:59.242Z,3200
2017-09-06T10:12:09.509Z,2736
2017-09-06T10:13:19.458Z,2412
2017-09-06T10:14:29.727Z,2284
2017-09-06T10:15:39.361Z,1864
2017-09-06T10:16:48.989Z,2304
2017-09-06T10:17:59.260Z,2176
2017-09-06T10:19:09.527Z,3236
2017-09-06T10:20:19.151Z,3700
2017-09-06T10:21:29.422Z,3044
2017-09-06T10:22:39.690Z,2600
2017-09-06T10:23:49.317Z,2656
2017-09-06T10:24:59.587Z,2636
2017-09-06T10:26:09.534Z,2416
2017-09-06T10:27:19.484Z,1904
2017-09-06T10:28:29.753Z,2896
2017-09-06T10:29:39.382Z,2400
2017-09-06T10:30:49.332Z,2116
2017-09-06T10:31:59.605Z,3208
2017-09-06T10:33:09.564Z,3100
2017-09-06T10:34:19.844Z,2360
2017-09-06T10:35:29.792Z,3176
2017-09-06T10:36:40.063Z,2796
2017-09-06T10:37:50.339Z,2956
2017-09-06T10:39:00.611Z,2268
2017-09-06T10:40:10.886Z,3200
2017-09-06T10:41:21.154Z,2572
2017-09-06T10:42:30.780Z,2824
2017-09-06T10:43:40.732Z,3216
2017-09-06T10:44:51.010Z,3656
2017-09-06T10:46:01.281Z,2636
2017-09-06T10:47:11.548Z,3612
2017-09-06T10:48:21.527Z,3916
2017-09-06T10:49:31.476Z,2976
2017-09-06T10:50:41.422Z,2988
2017-09-06T10:51:51.696Z,4448
2017-09-06T10:53:01.963Z,3712
2017-09-06T10:54:11.910Z,4432
2017-09-06T10:55:21.859Z,4352
2017-09-06T10:56:32.130Z,4132
2017-09-06T10:57:42.421Z,5076
2017-09-06T10:58:52.691Z,3724
2017-09-06T11:00:02.653Z,5036
2017-09-06T11:01:12.287Z,4152
2017-09-06T11:02:22.242Z,4200
2017-09-06T11:03:32.512Z,3432
2017-09-06T11:04:42.781Z,5064
2017-09-06T11:05:52.727Z,4940
2017-09-06T11:07:02.998Z,5644
2017-09-06T11:08:13.289Z,4612
2017-09-06T11:09:22.919Z,4560
2017-09-06T11:10:33.203Z,3988
2017-09-06T11:11:43.183Z,3336
2017-09-06T11:12:53.450Z,2864
2017-09-06T11:14:03.722Z,2556
2017-09-06T11:15:13.668Z,2712
2017-09-06T11:16:23.945Z,2284
2017-09-06T11:17:33.894Z,2396
2017-09-06T11:18:43.845Z,2140
2017-09-06T11:19:53.793Z,2184
2017-09-06T11:21:03.744Z,2192
2017-09-06T11:22:14.015Z,1584
2017-09-06T11:23:24.282Z,2236
2017-09-06T11:24:34.559Z,2456
2017-09-06T11:25:44.832Z,2456
2017-09-06T11:26:54.779Z,2508
2017-09-06T11:28:04.726Z,2520
2017-09-06T11:29:14.998Z,2344
2017-09-06T11:30:25.269Z,2056
2017-09-06T11:31:35.540Z,2720
2017-09-06T11:32:45.814Z,2824
2017-09-06T11:33:55.763Z,2368
2017-09-06T11:35:07.294Z,2728
2017-09-06T11:36:17.022Z,2528
2017-09-06T11:37:27.295Z,2392
2017-09-06T11:38:37.566Z,2528
2017-09-06T11:39:47.517Z,2432
2017-09-06T11:40:57.785Z,2356
2017-09-06T11:42:07.733Z,1932
2017-09-06T11:43:18.000Z,2008
2017-09-06T11:44:28.276Z,2460
2017-09-06T11:45:38.553Z,3048
2017-09-06T11:46:48.977Z,2144
2017-09-06T11:47:58.931Z,2224
2017-09-06T11:49:09.202Z,2564
2017-09-06T11:50:19.168Z,2084
2017-09-06T11:51:29.439Z,2524
2017-09-06T11:52:39.069Z,2636
2017-09-06T11:53:48.373Z,2684
2017-09-06T11:54:58.325Z,2060
2017-09-06T11:56:08.595Z,3584
2017-09-06T11:57:18.221Z,2812
2017-09-06T11:58:28.169Z,2796
2017-09-06T11:59:38.121Z,3576
2017-09-06T12:00:48.079Z,3500
2017-09-06T12:01:58.024Z,3340
2017-09-06T12:03:07.651Z,3380
2017-09-06T12:04:17.937Z,3608
2017-09-06T12:05:27.889Z,5116
2017-09-06T12:06:37.837Z,4032
2017-09-06T12:07:47.146Z,3704
2017-09-06T12:08:56.778Z,3972
2017-09-06T12:10:07.049Z,3988
2017-09-06T12:11:16.997Z,4888
2017-09-06T12:12:27.270Z,5016
2017-09-06T12:13:36.896Z,4808
2017-09-06T12:14:46.844Z,4684
2017-09-06T12:15:56.474Z,4788
2017-09-06T12:17:06.429Z,4560
2017-09-06T12:18:16.383Z,4420
2017-09-06T12:19:26.650Z,4008
2017-09-06T12:20:36.924Z,3820
2017-09-06T12:21:46.229Z,4552
2017-09-06T12:22:56.502Z,4920
2017-09-06T12:24:06.777Z,2824
2017-09-06T12:25:16.732Z,2392
2017-09-06T12:26:27.033Z,2364
2017-09-06T12:27:37.310Z,3272
2017-09-06T12:28:47.293Z,3984
2017-09-06T12:29:56.668Z,3960
2017-09-06T12:31:06.616Z,4416
2017-09-06T12:32:16.563Z,4840
2017-09-06T12:33:26.552Z,4720
2017-09-06T12:34:36.504Z,4292
2017-09-06T12:35:46.165Z,4264
2017-09-06T12:36:56.437Z,2968
2017-09-06T12:38:05.744Z,3232
2017-09-06T12:39:16.016Z,3040
2017-09-06T12:40:26.283Z,3408
2017-09-06T12:41:36.229Z,3492
2017-09-06T12:42:46.182Z,4560
2017-09-06T12:43:56.451Z,3940
2017-09-06T12:45:06.720Z,4432
2017-09-06T12:46:16.346Z,3564
2017-09-06T12:47:26.621Z,4824
2017-09-06T12:48:36.888Z,3788
2017-09-06T12:49:47.160Z,2928
2017-09-06T12:50:57.104Z,2788
2017-09-06T12:52:06.689Z,4020
2017-09-06T12:53:16.698Z,2684
2017-09-06T12:54:26.996Z,2272
2017-09-06T12:55:36.946Z,3192
2017-09-06T12:56:47.231Z,2952
2017-09-06T12:57:57.180Z,2400
2017-09-06T12:59:06.809Z,1620
2017-09-06T13:00:16.756Z,1772
2017-09-06T13:01:27.026Z,1940
2017-09-06T13:02:36.975Z,1508
2017-09-06T13:03:46.933Z,1696
2017-09-06T13:04:57.203Z,1488
2017-09-06T13:06:06.828Z,1672
2017-09-06T13:07:16.783Z,1596
2017-09-06T13:08:27.063Z,1544
2017-09-06T13:09:37.339Z,1208
2017-09-06T13:10:47.286Z,1316
2017-09-06T13:11:57.234Z,1420
2017-09-06T13:13:07.505Z,1680
2017-09-06T13:14:17.450Z,1412
2017-09-06T13:15:27.396Z,1244
2017-09-06T13:16:37.378Z,1784
2017-09-06T13:17:47.649Z,2120
2017-09-06T13:18:57.593Z,2920
2017-09-06T13:20:07.540Z,2804
2017-09-06T13:21:17.809Z,2288
2017-09-06T13:22:28.091Z,2736
2017-09-06T13:23:38.362Z,2800
2017-09-06T13:24:47.663Z,2140
2017-09-06T13:25:57.933Z,3792
2017-09-06T13:27:07.884Z,3872
2017-09-06T13:28:17.831Z,3388
2017-09-06T13:29:27.776Z,3368
2017-09-06T13:30:37.722Z,3668
2017-09-06T13:31:49.679Z,3672
2017-09-06T13:32:59.630Z,3644
2017-09-06T13:34:09.582Z,4008
2017-09-06T13:35:19.527Z,4488
2017-09-06T13:36:29.155Z,4124
2017-09-06T13:37:38.784Z,2956
2017-09-06T13:38:48.733Z,2768
2017-09-06T13:39:58.679Z,3144
2017-09-06T13:41:08.306Z,3492
2017-09-06T13:42:18.576Z,3404
2017-09-06T13:43:28.526Z,2044
2017-09-06T13:44:38.473Z,1908
2017-09-06T13:45:48.425Z,2064
2017-09-06T13:46:58.697Z,1388
2017-09-06T13:48:08.650Z,2052
2017-09-06T13:49:18.918Z,2676
2017-09-06T13:50:28.867Z,2820
2017-09-06T13:51:39.139Z,2748
2017-09-06T13:52:48.765Z,1960
2017-09-06T13:53:59.040Z,1692
2017-09-06T13:55:09.324Z,2376
2017-09-06T13:56:19.271Z,3552
2017-09-06T13:57:29.216Z,2976
2017-09-06T13:58:38.848Z,3164
2017-09-06T13:59:48.474Z,3732
2017-09-06T14:00:58.100Z,3596
2017-09-06T14:02:08.368Z,2592
2017-09-06T14:03:18.637Z,2948
2017-09-06T14:04:28.589Z,2200
2017-09-06T14:05:38.856Z,2792
2017-09-06T14:06:48.485Z,4464
2017-09-06T14:07:58.754Z,4828
2017-09-06T14:09:08.704Z,4504
2017-09-06T14:10:18.652Z,4124
2017-09-06T14:11:28.921Z,3472
2017-09-06T14:12:39.195Z,4228
2017-09-06T14:13:49.148Z,3908
2017-09-06T14:14:59.095Z,3868
2017-09-06T14:16:09.370Z,3852
2017-09-06T14:17:18.997Z,3392
2017-09-06T14:18:29.270Z,2692
2017-09-06T14:19:39.216Z,4188
2017-09-06T14:20:49.486Z,3940
2017-09-06T14:21:59.757Z,4096
2017-09-06T14:23:09.388Z,3420
2017-09-06T14:24:19.018Z,3644
2017-09-06T14:25:29.285Z,3516
2017-09-06T14:26:39.251Z,3344
2017-09-06T14:27:49.520Z,3448
2017-09-06T14:28:59.795Z,3164
2017-09-06T14:30:09.418Z,2972
2017-09-06T14:31:19.043Z,2984
2017-09-06T14:32:29.311Z,2388
2017-09-06T14:33:38.649Z,2624
2017-09-06T14:34:48.277Z,2360
2017-09-06T14:35:58.545Z,1768
2017-09-06T14:37:08.820Z,1520
2017-09-06T14:38:19.090Z,1712
2017-09-06T14:39:29.058Z,2084
2017-09-06T14:40:39.327Z,2380
2017-09-06T14:41:49.629Z,2620
2017-09-06T14:42:59.903Z,2672
2017-09-06T14:44:09.529Z,2788
2017-09-06T14:45:19.156Z,2548
2017-09-06T14:46:29.466Z,1948
2017-09-06T14:47:39.743Z,2032
2017-09-06T14:48:50.011Z,1740
2017-09-06T14:50:00.279Z,2016
2017-09-06T14:51:10.548Z,2348
2017-09-06T14:52:20.177Z,2360
2017-09-06T14:53:29.804Z,1776
2017-09-06T14:54:39.756Z,1516
2017-09-06T14:55:50.033Z,1280
2017-09-06T14:57:00.313Z,2440
2017-09-06T14:58:10.595Z,2088
2017-09-06T14:59:20.222Z,1556
2017-09-06T15:00:30.500Z,1744
2017-09-06T15:01:40.452Z,1880
2017-09-06T15:02:50.728Z,1576
2017-09-06T15:04:00.995Z,1892
2017-09-06T15:05:10.625Z,2360
2017-09-06T15:06:20.901Z,1492
2017-09-06T15:07:30.849Z,1300
2017-09-06T15:08:40.799Z,1828
2017-09-06T15:09:50.429Z,1028
2017-09-06T15:11:00.384Z,1228
2017-09-06T15:12:10.655Z,1632
2017-09-06T15:13:20.603Z,1632
2017-09-06T15:14:30.873Z,968
2017-09-06T15:15:40.890Z,1456
2017-09-06T15:16:51.157Z,1620
2017-09-06T15:18:01.426Z,912
2017-09-06T15:19:11.056Z,748
2017-09-06T15:20:20.685Z,1064
2017-09-06T15:21:30.633Z,1772
2017-09-06T15:22:40.584Z,1020
2017-09-06T15:23:50.211Z,1060
2017-09-06T15:25:00.156Z,1112
2017-09-06T15:26:10.110Z,1444
2017-09-06T15:27:20.060Z,916
2017-09-06T15:28:32.010Z,868
2017-09-06T15:29:42.284Z,712
2017-09-06T15:30:51.913Z,1220
2017-09-06T15:32:02.185Z,796
2017-09-06T15:33:12.458Z,752
2017-09-06T15:34:22.404Z,692
2017-09-06T15:35:32.678Z,1376
2017-09-06T15:36:42.630Z,1276
2017-09-06T15:37:52.586Z,1228
2017-09-06T15:39:02.854Z,1036
2017-09-06T15:40:13.135Z,660
2017-09-06T15:41:23.407Z,780
2017-09-06T15:42:33.355Z,680
2017-09-06T15:43:43.308Z,648
2017-09-06T15:44:53.252Z,620
2017-09-06T15:46:03.210Z,624
2017-09-06T15:47:13.478Z,540
2017-09-06T15:48:23.423Z,548
2017-09-06T15:49:33.373Z,600
2017-09-06T15:50:43.353Z,748
2017-09-06T15:51:53.622Z,516
2017-09-06T15:53:03.896Z,572
2017-09-06T15:54:14.170Z,568
2017-09-06T15:55:24.437Z,512
2017-09-06T15:56:34.709Z,508
2017-09-06T15:57:44.338Z,532
2017-09-06T15:58:54.607Z,588
2017-09-06T16:00:04.563Z,540
2017-09-06T16:01:14.188Z,456
2017-09-06T16:02:24.459Z,536
2017-09-06T16:03:34.404Z,576
2017-09-06T16:04:44.356Z,592